Time;durP1;ratioP1;P1;durP2;ratioP2;P2;SDS_P1;SDS_P2;PMS_P1;PMS_P2;Temp;Humidity;BMP_temperature;BMP_pressure;BME280_temperature;BME280_humidity;BME280_pressure;Samples;Min_cycle;Max_cycle;Signal;HPM_P1;HPM_P2
2023/02/16 00:01:16;;;;;;;52.58;19.70;;;3.20;99.90;;;;;;5061333;28;20517;-65
2023/02/16 00:03:44;;;;;;;40.95;17.75;;;3.20;99.90;;;;;;5060094;28;20072;-65
2023/02/16 00:06:14;;;;;;;45.50;19.98;;;3.20;99.90;;;;;;5061869;28;20036;-66
2023/02/16 00:08:43;;;;;;;49.92;19.35;;;3.20;99.90;;;;;;5050072;28;20040;-65
2023/02/16 00:14:08;;;;;;;48.97;21.75;;;3.30;99.90;;;;;;5060060;28;20048;-65
2023/02/16 00:16:35;;;;;;;44.88;19.80;;;3.30;99.90;;;;;;5063342;28;20044;-66
2023/02/16 00:19:14;;;;;;;51.53;21.65;;;3.30;99.90;;;;;;5063849;28;20048;-64
2023/02/16 00:21:41;;;;;;;48.75;19.90;;;3.30;99.90;;;;;;5060696;28;20049;-64
2023/02/16 00:24:07;;;;;;;44.90;21.45;;;3.30;99.90;;;;;;5064226;28;20041;-69
2023/02/16 00:26:34;;;;;;;49.30;20.85;;;3.40;99.90;;;;;;5065048;28;20135;-67
2023/02/16 00:29:02;;;;;;;43.20;18.77;;;3.30;99.90;;;;;;5067592;28;20071;-64
2023/02/16 00:31:32;;;;;;;37.65;17.75;;;3.40;99.90;;;;;;5062723;28;20071;-65
2023/02/16 00:34:14;;;;;;;39.83;19.23;;;3.40;99.90;;;;;;5062098;28;20063;-67
2023/02/16 00:36:41;;;;;;;39.58;17.92;;;3.40;99.90;;;;;;5063489;28;20115;-67
2023/02/16 00:39:08;;;;;;;44.03;18.98;;;3.40;99.90;;;;;;5067103;28;20068;-66
2023/02/16 00:41:50;;;;;;;36.67;17.20;;;3.40;99.90;;;;;;5071039;28;20052;-65
2023/02/16 00:44:22;;;;;;;36.92;17.50;;;3.40;99.90;;;;;;5066278;28;20652;-64
2023/02/16 00:46:49;;;;;;;40.75;20.15;;;3.40;99.90;;;;;;5067916;28;20045;-64
2023/02/16 00:49:19;;;;;;;40.03;20.65;;;3.40;99.90;;;;;;5067495;28;20071;-66
2023/02/16 00:51:47;;;;;;;40.45;18.20;;;3.40;99.90;;;;;;5053515;28;20545;-64
2023/02/16 00:54:14;;;;;;;39.78;17.55;;;3.40;99.90;;;;;;5064941;28;20117;-64
2023/02/16 00:56:43;;;;;;;37.15;18.58;;;3.40;99.90;;;;;;5067922;28;20223;-65
2023/02/16 00:59:17;;;;;;;38.25;17.25;;;3.40;99.90;;;;;;5064888;28;20601;-67
2023/02/16 01:01:44;;;;;;;40.08;17.88;;;3.40;99.90;;;;;;5052917;28;20079;-65
2023/02/16 01:04:19;;;;;;;36.00;17.38;;;3.40;99.90;;;;;;5065019;28;20059;-63
2023/02/16 01:12:19;;;;;;;38.92;17.92;;;3.40;99.90;;;;;;5064287;28;20045;-66
2023/02/16 01:14:50;;;;;;;38.35;17.63;;;3.40;99.90;;;;;;5061862;28;20056;-72
2023/02/16 01:17:17;;;;;;;43.55;17.67;;;3.40;99.90;;;;;;5066570;28;20136;-64
2023/02/16 01:19:44;;;;;;;36.75;18.25;;;3.40;99.90;;;;;;5066120;28;20152;-67
2023/02/16 01:22:11;;;;;;;34.42;17.15;;;3.40;99.90;;;;;;5062495;28;20522;-66
2023/02/16 01:24:38;;;;;;;36.92;17.10;;;3.40;99.90;;;;;;5047870;28;20048;-67
2023/02/16 01:27:05;;;;;;;32.53;17.13;;;3.40;99.90;;;;;;5063094;28;20457;-66
2023/02/16 01:29:32;;;;;;;35.47;18.05;;;3.40;99.90;;;;;;5064735;28;20064;-64
2023/02/16 01:31:58;;;;;;;44.08;17.92;;;3.40;99.90;;;;;;5064135;28;20126;-66
2023/02/16 01:34:25;;;;;;;33.65;17.08;;;3.40;99.90;;;;;;5065323;28;20048;-65
2023/02/16 01:36:52;;;;;;;28.20;14.75;;;3.40;99.90;;;;;;5064527;28;20077;-65
2023/02/16 01:39:19;;;;;;;37.35;18.13;;;3.40;99.90;;;;;;5066361;28;20052;-64
2023/02/16 01:42:24;;;;;;;35.95;17.02;;;3.30;99.90;;;;;;5066316;28;20068;-67
2023/02/16 01:45:00;;;;;;;28.58;15.35;;;3.40;99.90;;;;;;5051751;28;20072;-65
2023/02/16 01:48:01;;;;;;;33.80;18.00;;;3.40;99.90;;;;;;5064501;28;20041;-66
2023/02/16 01:50:43;;;;;;;35.70;16.83;;;3.40;99.90;;;;;;5058879;28;21863;-68
2023/02/16 01:53:41;;;;;;;35.83;16.60;;;3.30;99.90;;;;;;5064529;28;20040;-64
2023/02/16 01:56:27;;;;;;;30.63;15.77;;;3.30;99.90;;;;;;5062706;28;20053;-67
2023/02/16 01:59:07;;;;;;;38.20;17.20;;;3.30;99.90;;;;;;5050965;28;20045;-64
2023/02/16 02:01:49;;;;;;;35.85;16.30;;;3.30;99.90;;;;;;5049676;28;20735;-64
2023/02/16 02:07:25;;;;;;;33.67;15.95;;;3.30;99.90;;;;;;5057960;28;20045;-65
2023/02/16 02:10:11;;;;;;;36.80;15.85;;;3.30;99.90;;;;;;5051395;28;20049;-66
2023/02/16 02:12:58;;;;;;;31.80;15.93;;;3.30;99.90;;;;;;5068466;28;20053;-67
2023/02/16 02:15:30;;;;;;;31.88;15.60;;;3.30;99.90;;;;;;5056796;28;20098;-65
2023/02/16 02:17:57;;;;;;;38.83;15.25;;;3.30;99.90;;;;;;5056916;28;20055;-66
2023/02/16 02:24:38;;;;;;;39.00;17.70;;;3.30;99.90;;;;;;5032398;28;20106;-64
2023/02/16 02:27:08;;;;;;;32.30;16.35;;;3.30;99.90;;;;;;5062768;28;20525;-69
2023/02/16 02:29:56;;;;;;;32.85;15.38;;;3.40;99.90;;;;;;5050360;28;20051;-69
2023/02/16 02:32:46;;;;;;;29.25;15.68;;;3.30;99.90;;;;;;5058908;28;20040;-66
2023/02/16 02:35:21;;;;;;;31.98;16.20;;;3.30;99.90;;;;;;5053656;28;20704;-66
2023/02/16 02:37:59;;;;;;;26.67;14.90;;;3.30;99.90;;;;;;5053881;28;20047;-62
2023/02/16 02:40:43;;;;;;;30.80;14.82;;;3.30;99.90;;;;;;5046251;28;20289;-63
2023/02/16 02:43:19;;;;;;;34.63;13.95;;;3.30;99.90;;;;;;5043437;28;20052;-64
2023/02/16 02:45:51;;;;;;;29.58;14.75;;;3.30;99.90;;;;;;5050296;28;20055;-63
2023/02/16 02:48:18;;;;;;;32.47;15.00;;;3.30;99.90;;;;;;5046670;28;20139;-63
2023/02/16 03:00:39;;;;;;;28.10;15.77;;;3.30;99.90;;;;;;5047054;28;20052;-66
2023/02/16 03:02:24;;;;;;;31.77;13.93;;;3.20;99.90;;;;;;5055010;28;20079;-66
2023/02/16 03:04:53;;;;;;;21.63;13.13;;;3.20;99.90;;;;;;5063870;28;20045;-64
2023/02/16 03:07:45;;;;;;;24.30;12.77;;;3.20;99.90;;;;;;5066416;28;20067;-63
2023/02/16 03:12:56;;;;;;;25.00;13.52;;;3.20;99.90;;;;;;5062673;28;20079;-69
2023/02/16 03:15:25;;;;;;;27.08;13.80;;;3.20;99.90;;;;;;5063996;28;20048;-64
2023/02/16 03:31:49;;;;;;;33.50;15.55;;;3.10;99.90;;;;;;5062073;28;20583;-72
2023/02/16 03:34:18;;;;;;;31.77;16.58;;;3.10;99.90;;;;;;5039278;28;20056;-72
2023/02/16 03:36:49;;;;;;;27.95;16.30;;;3.10;99.90;;;;;;5061753;28;20658;-65
2023/02/16 03:39:16;;;;;;;34.22;17.70;;;3.10;99.90;;;;;;5062523;28;20044;-65
2023/02/16 03:41:52;;;;;;;35.05;18.67;;;3.10;99.90;;;;;;5034009;28;20058;-69
2023/02/16 03:44:19;;;;;;;30.83;16.73;;;3.10;99.90;;;;;;5059701;28;20049;-65
2023/02/16 03:46:48;;;;;;;31.10;17.88;;;3.00;99.90;;;;;;5066874;28;20466;-63
2023/02/16 03:49:18;;;;;;;31.13;16.33;;;3.00;99.90;;;;;;5062757;28;20437;-63
2023/02/16 03:51:45;;;;;;;33.20;17.13;;;3.00;99.90;;;;;;5061844;28;20110;-63
2023/02/16 03:54:12;;;;;;;34.63;17.98;;;3.00;99.90;;;;;;5052776;28;20123;-66
2023/02/16 03:56:39;;;;;;;28.58;15.98;;;2.90;99.90;;;;;;5059484;28;20498;-65
2023/02/16 03:59:06;;;;;;;30.92;15.63;;;3.00;99.90;;;;;;5061199;28;20056;-66
2023/02/16 04:01:33;;;;;;;30.90;16.98;;;3.00;99.90;;;;;;5064302;28;20051;-64
2023/02/16 04:04:00;;;;;;;30.08;16.75;;;2.90;99.90;;;;;;5061184;28;20402;-63
2023/02/16 04:06:27;;;;;;;31.75;15.98;;;2.90;99.90;;;;;;5061601;28;20048;-63
2023/02/16 04:08:54;;;;;;;31.52;17.23;;;2.90;99.90;;;;;;5065529;28;20048;-68
2023/02/16 04:14:06;;;;;;;31.17;17.38;;;2.90;99.90;;;;;;5065657;28;20147;-64
2023/02/16 04:16:33;;;;;;;36.38;19.67;;;2.90;99.90;;;;;;5068065;28;20051;-63
2023/02/16 04:19:00;;;;;;;38.22;19.55;;;2.90;99.90;;;;;;5067981;28;20084;-68
2023/02/16 04:21:27;;;;;;;39.45;18.17;;;2.90;99.90;;;;;;5066157;28;20068;-67
2023/02/16 04:23:54;;;;;;;35.40;19.20;;;2.90;99.90;;;;;;5066087;28;20143;-64
2023/02/16 04:26:21;;;;;;;35.72;19.27;;;2.90;99.90;;;;;;5064862;28;20047;-66
2023/02/16 04:28:47;;;;;;;32.88;19.25;;;2.90;99.90;;;;;;5067700;28;20136;-63
2023/02/16 04:31:14;;;;;;;38.22;19.05;;;2.90;99.90;;;;;;5065138;28;20043;-68
2023/02/16 04:33:41;;;;;;;33.45;17.45;;;2.90;99.90;;;;;;5065098;28;20044;-69
2023/02/16 04:36:09;;;;;;;29.35;15.13;;;2.90;99.90;;;;;;5063369;28;20041;-67
2023/02/16 04:38:35;;;;;;;36.05;18.98;;;2.90;99.90;;;;;;5064019;28;20064;-66
2023/02/16 04:41:02;;;;;;;38.10;16.08;;;2.90;99.90;;;;;;5067817;28;20047;-66
2023/02/16 04:43:31;;;;;;;37.83;17.42;;;2.90;99.90;;;;;;5064983;28;20056;-64
2023/02/16 04:45:58;;;;;;;35.63;19.02;;;2.90;99.90;;;;;;5053127;28;20074;-64
2023/02/16 04:48:25;;;;;;;32.10;15.98;;;2.80;99.90;;;;;;5066413;28;20095;-66
2023/02/16 04:50:52;;;;;;;32.08;17.10;;;2.80;99.90;;;;;;5066343;28;20045;-63
2023/02/16 04:53:19;;;;;;;34.45;18.40;;;2.80;99.90;;;;;;5065765;28;20044;-63
2023/02/16 04:55:47;;;;;;;37.67;18.67;;;2.80;99.90;;;;;;5064549;28;20045;-63
2023/02/16 04:58:15;;;;;;;30.15;17.55;;;2.80;99.90;;;;;;5063510;28;20055;-65
2023/02/16 05:00:42;;;;;;;41.30;17.13;;;2.70;99.90;;;;;;5061848;28;20062;-64
2023/02/16 05:03:09;;;;;;;37.63;18.77;;;2.70;99.90;;;;;;5066322;28;20054;-69
2023/02/16 05:05:36;;;;;;;33.97;18.60;;;2.70;99.90;;;;;;5058221;28;20072;-63
2023/02/16 05:08:03;;;;;;;39.10;20.17;;;2.70;99.90;;;;;;5064828;28;20051;-63
2023/02/16 05:10:30;;;;;;;38.10;18.63;;;2.60;99.90;;;;;;5061388;28;20059;-69
2023/02/16 05:15:42;;;;;;;47.60;21.00;;;2.60;99.90;;;;;;5065940;28;20421;-66
2023/02/16 05:18:09;;;;;;;39.63;19.98;;;2.60;99.90;;;;;;5064780;28;20144;-65
2023/02/16 05:23:21;;;;;;;43.33;20.92;;;2.60;99.90;;;;;;5065622;28;20041;-64
2023/02/16 05:25:48;;;;;;;44.22;21.60;;;2.60;99.90;;;;;;5067182;28;20048;-64
2023/02/16 05:28:15;;;;;;;56.42;25.58;;;2.60;99.90;;;;;;5062565;28;20045;-64
2023/02/16 05:30:42;;;;;;;56.17;26.52;;;2.60;99.90;;;;;;5064742;28;20155;-66
2023/02/16 05:33:09;;;;;;;57.45;27.17;;;2.60;99.90;;;;;;5067081;28;20075;-64
2023/02/16 05:35:35;;;;;;;64.88;29.13;;;2.60;99.90;;;;;;5064791;28;20052;-63
2023/02/16 05:38:02;;;;;;;71.88;28.98;;;2.60;99.90;;;;;;5053466;28;20117;-67
2023/02/16 05:40:29;;;;;;;67.18;31.40;;;2.60;99.90;;;;;;5065792;28;20118;-69
2023/02/16 05:42:57;;;;;;;76.93;32.35;;;2.60;99.90;;;;;;5063593;28;20529;-63
2023/02/16 05:45:23;;;;;;;75.28;32.28;;;2.60;99.90;;;;;;5064444;28;20413;-64
2023/02/16 05:47:52;;;;;;;68.10;30.10;;;2.60;99.90;;;;;;5064955;28;20051;-65
2023/02/16 05:50:18;;;;;;;68.43;30.77;;;2.60;99.90;;;;;;5062438;28;20044;-68
2023/02/16 05:52:47;;;;;;;58.60;28.80;;;2.60;99.90;;;;;;5069757;28;20114;-65
2023/02/16 05:55:14;;;;;;;59.50;27.63;;;2.60;99.90;;;;;;5064566;28;20048;-71
2023/02/16 05:57:41;;;;;;;58.92;29.00;;;2.60;99.90;;;;;;5066352;28;20048;-65
2023/02/16 06:00:09;;;;;;;61.35;27.75;;;2.60;99.90;;;;;;5060447;28;20053;-68
2023/02/16 06:02:35;;;;;;;57.80;28.00;;;2.60;99.90;;;;;;5066033;28;20394;-66
2023/02/16 06:05:02;;;;;;;62.42;30.42;;;2.60;99.90;;;;;;5070064;28;20049;-66
2023/02/16 06:07:29;;;;;;;59.45;29.70;;;2.60;99.90;;;;;;5058899;28;20635;-64
2023/02/16 06:09:56;;;;;;;59.58;30.27;;;2.60;99.90;;;;;;5064404;28;20045;-64
2023/02/16 06:12:23;;;;;;;62.67;29.25;;;2.60;99.90;;;;;;5065888;28;20044;-64
2023/02/16 06:14:50;;;;;;;63.35;31.52;;;2.60;99.90;;;;;;5066093;28;20045;-64
2023/02/16 06:17:17;;;;;;;63.28;30.15;;;2.60;99.90;;;;;;5065841;28;20078;-64
2023/02/16 06:19:43;;;;;;;58.97;28.63;;;2.70;99.90;;;;;;5065468;28;20059;-65
2023/02/16 06:22:10;;;;;;;59.55;29.73;;;2.70;99.90;;;;;;5064947;28;20164;-71
2023/02/16 06:24:37;;;;;;;62.17;29.35;;;2.70;99.90;;;;;;5064889;28;20055;-64
2023/02/16 06:27:05;;;;;;;68.43;31.67;;;2.70;99.90;;;;;;5068677;28;20048;-65
2023/02/16 06:29:32;;;;;;;58.05;30.30;;;2.70;99.90;;;;;;5062965;28;20033;-64
2023/02/16 06:31:59;;;;;;;64.47;30.35;;;2.70;99.90;;;;;;5061860;28;20067;-65
2023/02/16 06:34:26;;;;;;;70.15;29.83;;;2.70;99.90;;;;;;5048733;28;20114;-63
2023/02/16 06:36:53;;;;;;;67.25;31.15;;;2.70;99.90;;;;;;5064140;28;20402;-64
2023/02/16 06:39:20;;;;;;;73.38;32.47;;;2.70;99.90;;;;;;5068396;28;20075;-65
2023/02/16 06:41:47;;;;;;;68.43;32.60;;;2.70;99.90;;;;;;5064560;28;20044;-70
2023/02/16 06:44:15;;;;;;;69.95;31.42;;;2.70;99.90;;;;;;5063419;28;20056;-70
2023/02/16 06:46:44;;;;;;;71.05;32.20;;;2.70;99.90;;;;;;5061518;28;20128;-67
2023/02/16 06:49:13;;;;;;;73.23;36.03;;;2.70;99.90;;;;;;5067823;28;20044;-63
2023/02/16 06:51:40;;;;;;;80.72;36.17;;;2.70;99.90;;;;;;5064234;28;20282;-67
2023/02/16 06:54:07;;;;;;;76.47;37.22;;;2.70;99.90;;;;;;5059385;28;20504;-71
2023/02/16 06:56:34;;;;;;;82.45;34.00;;;2.70;99.90;;;;;;5065942;28;20398;-64
2023/02/16 06:59:04;;;;;;;71.55;32.03;;;2.70;99.90;;;;;;5067088;28;20044;-65
2023/02/16 07:01:31;;;;;;;81.90;35.80;;;2.70;99.90;;;;;;5066288;28;20131;-64
2023/02/16 07:03:58;;;;;;;74.00;37.00;;;2.70;99.90;;;;;;5059196;28;20043;-67
2023/02/16 07:06:27;;;;;;;80.20;34.72;;;2.70;99.90;;;;;;5065670;28;20056;-66
2023/02/16 07:08:54;;;;;;;81.18;34.58;;;2.70;99.90;;;;;;5062896;28;20049;-64
2023/02/16 07:11:22;;;;;;;78.13;35.25;;;2.70;99.90;;;;;;5064771;28;20163;-70
2023/02/16 07:13:49;;;;;;;85.30;33.95;;;2.70;99.90;;;;;;5063087;28;20064;-69
2023/02/16 07:16:16;;;;;;;82.78;34.80;;;2.70;99.90;;;;;;5062746;28;20143;-67
2023/02/16 07:18:43;;;;;;;67.97;32.08;;;2.70;99.90;;;;;;5060992;28;20048;-67
2023/02/16 07:21:10;;;;;;;79.00;33.47;;;2.60;99.90;;;;;;5061471;28;20043;-65
2023/02/16 07:23:37;;;;;;;77.15;32.25;;;2.60;99.90;;;;;;5062633;28;20962;-64
2023/02/16 07:26:04;;;;;;;90.40;31.92;;;2.60;99.90;;;;;;5061778;28;20387;-65
2023/02/16 07:28:31;;;;;;;91.07;34.97;;;2.60;99.90;;;;;;5064387;28;20068;-66
2023/02/16 07:31:04;;;;;;;106.38;32.95;;;2.60;99.90;;;;;;5064744;28;20056;-66
2023/02/16 07:33:31;;;;;;;79.65;30.55;;;2.60;99.90;;;;;;5061032;28;20083;-65
2023/02/16 07:35:58;;;;;;;104.43;31.85;;;2.60;99.90;;;;;;5060891;28;20474;-69
2023/02/16 07:38:25;;;;;;;90.82;34.58;;;2.60;99.90;;;;;;5064744;28;20076;-64
2023/02/16 07:40:52;;;;;;;85.32;30.70;;;2.60;99.90;;;;;;5062748;28;20083;-65
2023/02/16 07:43:19;;;;;;;84.60;32.00;;;2.60;99.90;;;;;;5058346;28;20082;-63
2023/02/16 07:45:46;;;;;;;89.65;33.92;;;2.60;99.90;;;;;;5048423;28;20067;-63
2023/02/16 07:48:13;;;;;;;74.97;28.33;;;2.50;99.90;;;;;;5061617;28;20059;-65
2023/02/16 07:50:40;;;;;;;83.97;32.80;;;2.50;99.90;;;;;;5058122;28;20048;-63
2023/02/16 07:53:06;;;;;;;77.53;31.85;;;2.50;99.90;;;;;;5060263;28;20131;-64
2023/02/16 07:55:41;;;;;;;107.88;34.33;;;2.50;99.90;;;;;;5063119;28;20040;-67
2023/02/16 07:58:08;;;;;;;88.43;32.58;;;2.50;99.90;;;;;;5061970;28;20044;-63
2023/02/16 08:00:35;;;;;;;98.57;32.63;;;2.50;99.90;;;;;;5050845;28;20048;-63
2023/02/16 08:03:02;;;;;;;80.57;31.70;;;2.50;99.90;;;;;;5065340;28;20051;-63
2023/02/16 08:05:29;;;;;;;80.07;28.58;;;2.50;99.90;;;;;;5063782;28;20048;-70
2023/02/16 08:07:56;;;;;;;79.32;30.75;;;2.50;99.90;;;;;;5060558;28;20043;-63
2023/02/16 08:10:23;;;;;;;99.25;26.02;;;2.50;99.90;;;;;;5064762;28;20048;-64
2023/02/16 08:12:50;;;;;;;91.15;27.10;;;2.50;99.90;;;;;;5062928;28;20041;-63
2023/02/16 08:15:17;;;;;;;85.82;29.38;;;2.40;99.90;;;;;;5062846;28;20048;-63
2023/02/16 08:17:44;;;;;;;89.38;26.88;;;2.40;99.90;;;;;;5046828;28;20063;-64
2023/02/16 08:20:11;;;;;;;76.05;26.55;;;2.30;99.90;;;;;;5060609;28;20132;-66
2023/02/16 08:22:38;;;;;;;89.32;28.23;;;2.30;99.90;;;;;;5062286;28;20143;-63
2023/02/16 08:25:05;;;;;;;80.47;28.10;;;2.30;99.90;;;;;;5067429;28;20478;-67
2023/02/16 08:27:33;;;;;;;71.05;25.15;;;2.30;99.90;;;;;;5064975;28;20442;-65
2023/02/16 08:30:00;;;;;;;75.50;28.17;;;2.20;99.90;;;;;;5064124;28;20650;-64
2023/02/16 08:32:27;;;;;;;74.93;27.40;;;2.20;99.90;;;;;;5063881;28;20052;-63
2023/02/16 08:34:56;;;;;;;86.55;26.90;;;2.20;99.90;;;;;;5063178;28;20049;-63
2023/02/16 08:37:23;;;;;;;88.82;28.00;;;2.20;99.90;;;;;;5061585;28;20049;-70
2023/02/16 08:39:50;;;;;;;75.00;28.08;;;2.20;99.90;;;;;;5061461;28;20519;-63
2023/02/16 08:42:17;;;;;;;96.07;30.65;;;2.20;99.90;;;;;;5061735;28;20076;-64
2023/02/16 08:44:45;;;;;;;82.03;30.80;;;2.20;99.90;;;;;;5064777;28;20626;-63
2023/02/16 08:47:12;;;;;;;81.13;29.17;;;2.30;99.90;;;;;;5063247;28;20743;-63
2023/02/16 08:49:39;;;;;;;79.70;30.20;;;2.20;99.90;;;;;;5060964;28;20056;-64
2023/02/16 08:52:06;;;;;;;77.15;31.60;;;2.20;99.90;;;;;;5061442;28;20067;-64
2023/02/16 08:54:35;;;;;;;71.68;27.10;;;2.20;99.90;;;;;;5061951;28;20068;-63
2023/02/16 08:57:02;;;;;;;72.32;27.35;;;2.20;99.90;;;;;;5064519;28;20159;-65
2023/02/16 08:59:29;;;;;;;66.95;26.65;;;2.20;99.90;;;;;;5065860;28;20505;-63
2023/02/16 09:01:57;;;;;;;58.95;25.80;;;2.20;99.90;;;;;;5064167;28;20072;-63
2023/02/16 09:04:27;;;;;;;57.22;25.27;;;2.20;99.90;;;;;;5067516;28;20450;-69
2023/02/16 09:06:56;;;;;;;65.30;28.67;;;2.20;99.90;;;;;;5067665;28;20064;-65
2023/02/16 09:09:25;;;;;;;57.10;24.20;;;2.20;99.90;;;;;;5062164;28;20041;-70
2023/02/16 09:11:52;;;;;;;56.17;26.42;;;2.20;99.90;;;;;;5067296;28;20139;-63
2023/02/16 09:14:21;;;;;;;67.15;29.67;;;2.20;99.90;;;;;;5061209;28;20046;-70
2023/02/16 09:16:48;;;;;;;49.42;24.63;;;2.10;99.90;;;;;;5067081;28;20116;-63
2023/02/16 09:19:19;;;;;;;67.18;28.80;;;2.10;99.90;;;;;;5066060;28;20040;-65
2023/02/16 09:21:49;;;;;;;60.90;27.45;;;2.20;99.90;;;;;;5066893;28;20076;-64
2023/02/16 09:24:16;;;;;;;64.78;26.67;;;2.20;99.90;;;;;;5064274;28;20045;-64
2023/02/16 09:26:43;;;;;;;54.55;26.48;;;2.20;99.90;;;;;;5069040;28;20041;-63
2023/02/16 09:29:12;;;;;;;47.22;27.25;;;2.10;99.90;;;;;;5067244;28;20147;-68
2023/02/16 09:31:41;;;;;;;49.28;27.30;;;2.10;99.90;;;;;;5064358;28;20416;-67
2023/02/16 09:34:17;;;;;;;47.90;26.20;;;2.10;99.90;;;;;;5062663;28;20041;-65
2023/02/16 09:36:44;;;;;;;47.92;24.95;;;2.10;99.90;;;;;;5063874;28;20052;-68
2023/02/16 09:39:11;;;;;;;50.22;24.50;;;2.10;99.90;;;;;;5067069;28;20048;-63
2023/02/16 09:42:13;;;;;;;52.80;30.00;;;2.10;99.90;;;;;;5061793;28;20669;-68
2023/02/16 09:44:53;;;;;;;50.05;25.67;;;2.10;99.90;;;;;;4964426;28;20047;-65
2023/02/16 09:47:28;;;;;;;42.50;24.75;;;2.10;99.90;;;;;;5042555;28;20100;-66
2023/02/16 09:50:22;;;;;;;39.20;20.88;;;2.20;99.90;;;;;;5048368;28;20041;-64
2023/02/16 09:53:33;;;;;;;42.97;22.65;;;2.20;99.90;;;;;;5068802;28;20052;-64
2023/02/16 09:56:28;;;;;;;42.00;22.85;;;2.20;99.90;;;;;;5061231;28;20687;-67
2023/02/16 09:59:03;;;;;;;45.63;24.27;;;2.30;99.90;;;;;;5069802;28;20051;-63
2023/02/16 10:01:43;;;;;;;44.13;23.98;;;2.30;99.90;;;;;;5076858;28;20821;-64
2023/02/16 10:04:28;;;;;;;41.58;22.55;;;2.30;99.90;;;;;;5068075;28;20055;-65
2023/02/16 10:07:19;;;;;;;40.90;23.17;;;2.40;99.90;;;;;;5071720;28;20757;-67
2023/02/16 10:09:50;;;;;;;41.30;22.08;;;2.40;99.90;;;;;;5070990;28;20044;-64
2023/02/16 10:12:44;;;;;;;44.08;23.95;;;2.50;99.90;;;;;;5073894;28;20044;-65
2023/02/16 10:15:21;;;;;;;47.13;21.38;;;2.50;99.90;;;;;;5063288;28;20076;-64
2023/02/16 10:17:54;;;;;;;35.28;21.48;;;2.50;99.90;;;;;;5076245;28;20044;-64
2023/02/16 10:20:24;;;;;;;40.72;21.60;;;2.60;99.90;;;;;;5069492;28;20044;-62
2023/02/16 10:22:59;;;;;;;43.38;22.13;;;2.60;99.90;;;;;;5065339;28;20468;-63
2023/02/16 10:25:45;;;;;;;39.28;23.08;;;2.70;99.90;;;;;;5067283;28;20482;-64
2023/02/16 10:28:19;;;;;;;39.58;23.20;;;2.70;99.90;;;;;;5063735;28;20076;-64
2023/02/16 10:31:04;;;;;;;37.83;20.95;;;2.80;99.90;;;;;;5068135;28;20047;-64
2023/02/16 10:33:54;;;;;;;41.83;22.73;;;2.80;99.90;;;;;;5073907;28;20040;-63
2023/02/16 10:36:56;;;;;;;40.65;21.80;;;2.90;99.90;;;;;;5073450;28;20512;-64
2023/02/16 10:39:40;;;;;;;42.33;22.45;;;2.90;99.90;;;;;;5064987;28;20048;-64
2023/02/16 10:42:26;;;;;;;43.88;24.35;;;2.90;99.90;;;;;;5066524;28;20055;-68
2023/02/16 10:45:13;;;;;;;42.85;23.52;;;3.00;99.90;;;;;;5064115;28;20044;-64
2023/02/16 10:47:42;;;;;;;34.13;20.98;;;3.00;99.90;;;;;;5066770;28;20070;-64
2023/02/16 10:50:21;;;;;;;40.95;25.08;;;3.00;99.90;;;;;;5060607;28;20052;-63
2023/02/16 10:52:49;;;;;;;48.42;23.70;;;3.00;99.90;;;;;;5064744;28;20044;-63
2023/02/16 10:55:16;;;;;;;40.90;23.10;;;3.00;99.90;;;;;;5063648;28;20094;-67
2023/02/16 10:57:54;;;;;;;49.50;24.00;;;3.00;99.90;;;;;;5065401;28;20045;-63
2023/02/16 11:00:28;;;;;;;40.72;24.52;;;3.00;99.90;;;;;;5060977;28;20612;-63
2023/02/16 11:02:55;;;;;;;47.28;23.23;;;3.10;99.90;;;;;;5063703;28;20387;-64
2023/02/16 11:05:25;;;;;;;42.75;25.30;;;3.10;99.90;;;;;;5061070;28;20081;-66
2023/02/16 11:07:53;;;;;;;;;;;3.10;99.90;;;;;;5064905;28;20040;-63
2023/02/16 11:10:42;;;;;;;51.97;23.55;;;3.10;99.90;;;;;;5062777;28;19921;-64
2023/02/16 11:13:24;;;;;;;36.58;22.33;;;3.20;99.90;;;;;;5061733;28;20041;-66
2023/02/16 11:15:54;;;;;;;39.75;22.98;;;3.20;99.90;;;;;;5061855;28;20055;-68
2023/02/16 11:18:31;;;;;;;42.40;22.52;;;3.20;99.90;;;;;;5057832;28;20052;-64
2023/02/16 11:20:59;;;;;;;48.90;22.23;;;3.20;99.90;;;;;;5062358;28;20049;-67
2023/02/16 11:23:39;;;;;;;48.58;24.17;;;3.20;99.90;;;;;;5063403;28;20044;-62
2023/02/16 11:26:22;;;;;;;44.50;22.67;;;3.20;99.90;;;;;;5059878;28;20224;-66
2023/02/16 11:28:50;;;;;;;48.90;23.27;;;3.30;99.90;;;;;;5062690;28;20303;-69
2023/02/16 11:31:24;;;;;;;40.67;19.45;;;3.30;99.90;;;;;;5063381;28;20090;-63
2023/02/16 11:33:59;;;;;;;61.00;24.08;;;3.30;99.90;;;;;;5058016;28;20506;-65
2023/02/16 11:36:38;;;;;;;42.70;22.55;;;3.30;99.90;;;;;;5059143;28;20052;-64
2023/02/16 11:39:22;;;;;;;41.05;23.85;;;3.20;99.90;;;;;;5051305;28;20425;-64
2023/02/16 11:41:59;;;;;;;43.10;22.77;;;3.20;99.90;;;;;;5064562;28;20060;-63
2023/02/16 11:44:32;;;;;;;43.30;22.77;;;3.20;99.90;;;;;;5052638;28;20063;-64
2023/02/16 11:47:03;;;;;;;40.92;21.05;;;3.30;99.90;;;;;;5059019;28;20048;-67
2023/02/16 11:49:37;;;;;;;42.17;23.15;;;3.30;99.90;;;;;;5061069;28;20060;-64
2023/02/16 11:52:39;;;;;;;40.90;23.10;;;3.30;99.90;;;;;;5062659;28;20049;-70
2023/02/16 11:55:21;;;;;;;40.92;20.80;;;3.30;99.90;;;;;;5001187;28;20056;-64
2023/02/16 11:57:48;;;;;;;42.33;21.92;;;3.30;99.90;;;;;;5057639;28;20041;-64
2023/02/16 12:00:17;;;;;;;41.15;23.23;;;3.30;99.90;;;;;;5061118;28;20049;-64
2023/02/16 12:03:17;;;;;;;37.03;20.48;;;3.30;99.90;;;;;;5058583;28;20053;-64
2023/02/16 12:06:04;;;;;;;42.47;22.23;;;3.30;99.90;;;;;;5058767;28;20402;-64
2023/02/16 12:08:53;;;;;;;43.67;22.95;;;3.30;99.90;;;;;;5061381;28;20051;-63
2023/02/16 12:11:43;;;;;;;41.95;22.05;;;3.30;99.90;;;;;;5062052;28;20049;-65
2023/02/16 12:14:41;;;;;;;39.35;22.50;;;3.30;99.90;;;;;;5057925;28;20426;-68
2023/02/16 12:17:25;;;;;;;43.97;22.95;;;3.30;99.90;;;;;;5056790;28;20050;-67
2023/02/16 12:20:24;;;;;;;41.90;22.63;;;3.30;99.90;;;;;;5058653;28;20608;-68
2023/02/16 12:23:12;;;;;;;39.40;20.52;;;3.40;99.90;;;;;;5055035;28;20827;-63
2023/02/16 12:25:49;;;;;;;41.47;21.17;;;3.40;99.90;;;;;;5042578;28;20090;-65
2023/02/16 12:28:34;;;;;;;44.63;20.95;;;3.50;99.90;;;;;;5024946;28;20072;-71
2023/02/16 12:31:27;;;;;;;40.85;20.90;;;3.50;99.90;;;;;;5056417;28;20051;-66
2023/02/16 12:34:16;;;;;;;40.38;20.58;;;3.50;99.90;;;;;;5047089;28;20049;-65
2023/02/16 12:36:56;;;;;;;38.22;19.42;;;3.50;99.90;;;;;;5064922;28;20041;-67
2023/02/16 12:39:46;;;;;;;;;;;3.50;99.90;;;;;;5064897;28;20144;-69
2023/02/16 12:42:31;;;;;;;53.67;21.55;;;3.60;99.90;;;;;;5060075;28;19951;-64
2023/02/16 12:45:04;;;;;;;48.83;23.20;;;3.60;99.90;;;;;;5067224;28;20544;-71
2023/02/16 12:47:39;;;;;;;37.85;21.27;;;3.60;99.90;;;;;;5064398;28;20402;-63
2023/02/16 12:50:23;;;;;;;37.70;20.30;;;3.60;99.90;;;;;;5063862;28;20529;-65
2023/02/16 12:53:01;;;;;;;39.47;19.95;;;3.60;99.90;;;;;;5060562;28;20053;-70
2023/02/16 12:55:37;;;;;;;50.85;25.02;;;3.60;99.90;;;;;;5063145;28;20105;-64
2023/02/16 12:58:06;;;;;;;49.92;22.58;;;3.60;99.90;;;;;;5064711;28;20059;-65
2023/02/16 13:00:48;;;;;;;37.22;21.23;;;3.60;99.90;;;;;;5066208;28;20037;-67
2023/02/16 13:03:38;;;;;;;41.85;21.42;;;3.60;99.90;;;;;;5066994;28;20051;-65
2023/02/16 13:06:16;;;;;;;33.90;19.20;;;3.50;99.90;;;;;;5060235;28;20045;-68
2023/02/16 13:08:55;;;;;;;37.15;20.40;;;3.50;99.90;;;;;;5067997;28;20517;-66
2023/02/16 13:11:28;;;;;;;36.05;20.33;;;3.50;99.90;;;;;;5061142;28;20048;-68
2023/02/16 13:14:00;;;;;;;36.42;21.77;;;3.40;99.90;;;;;;5061146;28;20114;-66
2023/02/16 13:16:35;;;;;;;34.17;20.35;;;3.40;99.90;;;;;;5062813;28;20477;-68
2023/02/16 13:19:02;;;;;;;36.67;21.38;;;3.40;99.90;;;;;;5066173;28;20486;-67
2023/02/16 13:21:35;;;;;;;37.85;21.00;;;3.30;99.90;;;;;;5046354;28;20068;-69
2023/02/16 13:24:44;;;;;;;39.40;21.13;;;3.30;99.90;;;;;;5059476;28;20045;-64
2023/02/16 13:27:48;;;;;;;35.28;19.42;;;3.30;99.90;;;;;;5062063;28;20090;-70
2023/02/16 13:30:55;;;;;;;42.40;22.90;;;3.30;99.90;;;;;;5062761;28;20040;-66
2023/02/16 13:33:37;;;;;;;35.78;21.27;;;3.20;99.90;;;;;;5066323;28;20040;-68
2023/02/16 13:36:32;;;;;;;43.50;22.63;;;3.20;99.90;;;;;;5061341;28;20059;-72
2023/02/16 13:39:36;;;;;;;39.33;21.00;;;3.20;99.90;;;;;;5063245;28;20055;-69
2023/02/16 13:42:11;;;;;;;40.10;23.38;;;3.10;99.90;;;;;;5043815;28;20155;-66
2023/02/16 13:44:51;;;;;;;40.47;22.95;;;3.10;99.90;;;;;;5065102;28;20052;-66
2023/02/16 13:47:24;;;;;;;42.25;23.23;;;3.10;99.90;;;;;;5063853;28;20052;-67
2023/02/16 13:50:01;;;;;;;43.00;24.30;;;3.10;99.90;;;;;;5065292;28;20058;-67
2023/02/16 13:52:56;;;;;;;39.83;23.45;;;3.10;99.90;;;;;;5059921;28;20054;-67
2023/02/16 13:55:30;;;;;;;40.78;23.05;;;3.20;99.90;;;;;;5062404;28;20046;-66
2023/02/16 13:58:10;;;;;;;45.95;25.20;;;3.20;99.90;;;;;;5062276;28;20041;-66